createdAt,value
2019-04-22T00:01:16.417Z,6.05
2019-04-22T00:03:49.989Z,5.99
2019-04-22T00:06:32.776Z,5.99
2019-04-22T00:09:11.214Z,5.98
2019-04-22T00:11:35.512Z,5.98
2019-04-22T00:14:10.563Z,5.90
2019-04-22T00:16:46.914Z,5.87
2019-04-22T00:21:48.994Z,5.81
2019-04-22T00:24:11.986Z,5.80
2019-04-22T00:26:44.025Z,5.82
2019-04-22T00:29:39.258Z,5.81
2019-04-22T00:32:05.238Z,5.77
2019-04-22T00:34:40.869Z,5.74
2019-04-22T00:37:11.695Z,5.68
2019-04-22T00:42:17.892Z,5.66
2019-04-22T00:44:45.389Z,5.60
2019-04-22T00:47:26.678Z,5.60
2019-04-22T00:52:16.622Z,5.63
2019-04-22T00:54:53.253Z,5.59
2019-04-22T00:57:21.566Z,5.53
2019-04-22T00:59:52.237Z,5.52
2019-04-22T01:02:27.175Z,5.47
2019-04-22T01:04:56.972Z,5.39
2019-04-22T01:07:23.826Z,5.38
2019-04-22T01:09:58.639Z,5.37
2019-04-22T01:12:28.401Z,5.33
2019-04-22T01:15:01.104Z,5.37
2019-04-22T01:17:35.930Z,5.40
2019-04-22T01:20:04.995Z,5.41
2019-04-22T01:22:29.376Z,5.43
2019-04-22T01:25:01.928Z,5.42
2019-04-22T01:27:33.432Z,5.34
2019-04-22T01:29:59.763Z,5.26
2019-04-22T01:32:22.917Z,5.38
2019-04-22T01:35:02.379Z,5.31
2019-04-22T01:37:34.582Z,5.34
2019-04-22T01:40:19.497Z,5.28
2019-04-22T01:42:48.540Z,5.27
2019-04-22T01:45:17.766Z,5.29
2019-04-22T01:47:49.238Z,5.20
2019-04-22T01:50:22.537Z,5.16
2019-04-22T01:52:54.577Z,5.22
2019-04-22T01:55:27.724Z,5.16
2019-04-22T01:57:51.582Z,5.17
2019-04-22T02:00:16.395Z,5.14
2019-04-22T02:02:59.231Z,5.06
2019-04-22T02:05:24.417Z,5.00
2019-04-22T02:07:58.010Z,4.99
2019-04-22T02:10:34.697Z,4.95
2019-04-22T02:13:02.012Z,4.88
2019-04-22T02:15:31.669Z,4.91
2019-04-22T02:18:10.732Z,4.91
2019-04-22T02:20:41.064Z,5.02
2019-04-22T02:26:01.210Z,5.03
2019-04-22T02:28:38.332Z,4.91
2019-04-22T02:31:23.537Z,4.90
2019-04-22T02:43:55.373Z,4.96
2019-04-22T02:51:16.385Z,4.94
2019-04-22T02:56:27.111Z,4.85
2019-04-22T03:04:00.635Z,4.83
2019-04-22T03:19:05.872Z,4.80
2019-04-22T03:21:29.982Z,4.69
2019-04-22T03:26:31.759Z,4.69
2019-04-22T03:29:07.471Z,4.66
2019-04-22T03:39:45.912Z,4.85
2019-04-22T03:42:05.716Z,4.92
2019-04-22T03:47:11.682Z,5.10
2019-04-22T03:54:47.706Z,5.14
2019-04-22T04:02:15.704Z,5.34
2019-04-22T04:07:20.148Z,5.44
2019-04-22T04:09:49.952Z,5.61
2019-04-22T04:15:05.505Z,5.81
2019-04-22T04:22:30.679Z,6.15
2019-04-22T04:25:22.078Z,6.36
2019-04-22T04:30:12.120Z,7.06
2019-04-22T04:32:41.653Z,7.38
2019-04-22T04:35:16.921Z,7.37
2019-04-22T04:37:41.780Z,7.46
2019-04-22T04:47:43.566Z,9.04
2019-04-22T04:50:06.932Z,9.52
2019-04-22T04:55:12.352Z,10.43
2019-04-22T05:00:31.960Z,10.65
2019-04-22T05:03:10.595Z,11.14
2019-04-22T05:05:12.376Z,11.60
2019-04-22T05:07:44.315Z,11.91
2019-04-22T05:10:35.107Z,12.45
2019-04-22T05:15:15.398Z,13.43
2019-04-22T05:17:43.908Z,13.90
2019-04-22T05:22:39.726Z,14.42
2019-04-22T05:25:11.751Z,14.86
2019-04-22T05:30:23.381Z,15.86
2019-04-22T05:32:44.616Z,16.32
2019-04-22T05:35:14.464Z,16.61
2019-04-22T05:37:49.953Z,16.72
2019-04-22T05:40:20.141Z,16.73
2019-04-22T05:42:52.833Z,16.89
2019-04-22T05:45:23.236Z,16.72
2019-04-22T05:47:51.990Z,16.42
2019-04-22T05:50:20.467Z,16.54
2019-04-22T05:52:57.059Z,16.23
2019-04-22T05:55:30.469Z,16.63
2019-04-22T05:58:08.995Z,16.54
2019-04-22T06:01:00.774Z,16.71
2019-04-22T06:05:35.936Z,16.39
2019-04-22T06:08:04.128Z,17.67
2019-04-22T06:10:39.349Z,17.75
2019-04-22T06:13:06.719Z,18.15
2019-04-22T06:15:52.926Z,17.08
2019-04-22T06:18:16.125Z,17.46
2019-04-22T06:20:56.967Z,17.49
2019-04-22T06:23:25.648Z,17.37
2019-04-22T06:28:29.100Z,16.97
2019-04-22T06:30:57.520Z,16.80
2019-04-22T06:33:31.615Z,16.24
2019-04-22T06:35:58.916Z,16.02
2019-04-22T06:38:34.018Z,16.61
2019-04-22T06:41:04.437Z,16.62
2019-04-22T06:43:28.286Z,16.52
2019-04-22T06:46:06.291Z,16.20
2019-04-22T06:48:31.688Z,16.92
2019-04-22T06:51:05.166Z,17.34
2019-04-22T06:53:34.405Z,16.61
2019-04-22T06:56:11.397Z,17.05
2019-04-22T06:58:36.744Z,17.80
2019-04-22T07:01:09.482Z,17.89
2019-04-22T07:03:53.662Z,18.27
2019-04-22T07:06:17.503Z,18.66
2019-04-22T07:09:05.993Z,17.98
2019-04-22T07:11:05.742Z,18.52
2019-04-22T07:13:43.427Z,18.46
2019-04-22T07:16:18.602Z,17.16
2019-04-22T07:21:12.509Z,16.70
2019-04-22T07:23:51.279Z,17.19
2019-04-22T07:26:13.959Z,17.79
2019-04-22T07:28:49.048Z,17.57
2019-04-22T07:31:20.645Z,17.52
2019-04-22T07:33:58.371Z,18.32
2019-04-22T07:38:49.155Z,18.15
2019-04-22T07:41:27.378Z,17.67
2019-04-22T07:46:26.332Z,17.48
2019-04-22T07:48:59.434Z,17.17
2019-04-22T07:51:32.632Z,17.36
2019-04-22T07:54:03.126Z,18.52
2019-04-22T07:56:34.796Z,18.85
2019-04-22T07:59:03.476Z,17.90
2019-04-22T08:01:30.503Z,16.83
2019-04-22T08:06:38.502Z,19.23
2019-04-22T08:09:13.806Z,19.41
2019-04-22T08:14:14.956Z,20.19
2019-04-22T08:16:45.168Z,20.13
2019-04-22T08:19:15.843Z,20.32
2019-04-22T08:21:49.051Z,20.27
2019-04-22T08:24:18.411Z,19.16
2019-04-22T08:26:45.385Z,19.27
2019-04-22T08:29:19.114Z,18.53
2019-04-22T08:31:48.807Z,19.51
2019-04-22T08:34:20.827Z,17.95
2019-04-22T08:37:22.809Z,18.61
2019-04-22T08:39:23.200Z,19.56
2019-04-22T08:41:43.538Z,18.13
2019-04-22T08:44:27.845Z,17.86
2019-04-22T08:49:28.722Z,17.88
2019-04-22T08:51:56.123Z,18.38
2019-04-22T08:54:33.886Z,18.24
2019-04-22T08:57:07.231Z,18.40
2019-04-22T08:59:33.639Z,18.39
2019-04-22T09:02:09.652Z,17.99
2019-04-22T09:04:31.380Z,17.06
2019-04-22T09:07:12.988Z,16.18
2019-04-22T09:09:42.442Z,16.35
2019-04-22T09:12:07.861Z,16.00
2019-04-22T09:17:13.666Z,16.43
2019-04-22T09:19:35.212Z,16.59
2019-04-22T09:22:11.270Z,17.28
2019-04-22T09:24:43.552Z,17.28
2019-04-22T09:27:18.752Z,17.06
2019-04-22T09:29:43.069Z,17.12
2019-04-22T09:32:18.479Z,17.47
2019-04-22T09:34:46.961Z,18.29
2019-04-22T09:42:24.065Z,18.32
2019-04-22T09:45:06.091Z,19.22
2019-04-22T09:47:24.930Z,17.75
2019-04-22T09:50:10.006Z,17.89
2019-04-22T09:52:20.547Z,17.21
2019-04-22T09:55:03.052Z,17.07
2019-04-22T09:57:24.609Z,17.07
2019-04-22T10:00:04.396Z,16.42
2019-04-22T10:02:34.300Z,16.57
2019-04-22T10:07:32.462Z,16.03
2019-04-22T10:10:09.960Z,16.20
2019-04-22T10:12:36.703Z,16.20
2019-04-22T10:15:19.700Z,16.24
2019-04-22T10:17:39.567Z,16.59
2019-04-22T10:20:05.578Z,16.58
2019-04-22T10:25:14.554Z,16.45
2019-04-22T10:27:46.242Z,17.29
2019-04-22T10:30:16.856Z,17.07
2019-04-22T10:32:46.081Z,16.51
2019-04-22T10:35:14.378Z,16.44
2019-04-22T10:37:40.576Z,16.96
2019-04-22T10:40:19.556Z,16.26
2019-04-22T10:42:51.461Z,16.75
2019-04-22T10:45:21.959Z,17.60
2019-04-22T10:47:52.263Z,17.86
2019-04-22T10:50:24.742Z,17.32
2019-04-22T10:52:55.274Z,17.32
2019-04-22T10:55:25.440Z,17.49
2019-04-22T10:57:54.916Z,16.96
2019-04-22T11:00:24.307Z,16.00
2019-04-22T11:02:53.866Z,16.35
2019-04-22T11:05:24.123Z,16.51
2019-04-22T11:07:57.915Z,16.64
2019-04-22T11:10:36.955Z,16.44
2019-04-22T11:12:56.775Z,16.88
2019-04-22T11:15:26.636Z,15.68
2019-04-22T11:17:57.650Z,15.89
2019-04-22T11:20:27.163Z,14.81
2019-04-22T11:22:56.495Z,13.87
2019-04-22T11:25:25.801Z,12.63
2019-04-22T11:27:55.817Z,11.24
2019-04-22T11:30:28.132Z,10.23
2019-04-22T11:32:58.293Z,9.89
2019-04-22T11:35:27.996Z,9.55
2019-04-22T11:37:57.276Z,9.59
2019-04-22T11:40:34.568Z,9.58
2019-04-22T11:42:59.669Z,9.63
2019-04-22T11:45:29.523Z,9.84
2019-04-22T11:47:59.510Z,9.72
2019-04-22T11:50:30.190Z,9.79
2019-04-22T11:53:00.792Z,9.60
2019-04-22T11:55:30.915Z,9.54
2019-04-22T11:58:01.061Z,9.60
2019-04-22T12:00:33.021Z,9.70
2019-04-22T12:03:03.200Z,9.50
2019-04-22T12:05:34.198Z,9.67
2019-04-22T12:08:04.969Z,9.34
2019-04-22T12:10:40.911Z,9.40
2019-04-22T12:13:06.296Z,9.44
2019-04-22T12:15:37.163Z,9.43
2019-04-22T12:18:07.365Z,9.51
2019-04-22T12:20:37.226Z,9.36
2019-04-22T12:23:07.416Z,9.58
2019-04-22T12:25:46.439Z,9.76
2019-04-22T12:28:09.096Z,9.77
2019-04-22T12:30:39.416Z,9.76
2019-04-22T12:33:12.643Z,9.89
2019-04-22T12:35:42.195Z,9.78
2019-04-22T12:38:14.307Z,9.62
2019-04-22T12:40:51.305Z,9.62
2019-04-22T12:43:16.150Z,9.69
2019-04-22T12:45:45.212Z,9.83
2019-04-22T12:48:15.062Z,9.94
2019-04-22T12:50:48.002Z,10.00
2019-04-22T12:53:18.790Z,9.74
2019-04-22T12:55:48.087Z,9.52
2019-04-22T12:58:18.105Z,9.45
2019-04-22T13:00:48.395Z,9.36
2019-04-22T13:03:18.286Z,9.42
2019-04-22T13:05:47.523Z,9.47
2019-04-22T13:08:19.875Z,9.44
2019-04-22T13:10:58.698Z,9.25
2019-04-22T13:13:20.827Z,9.27
2019-04-22T13:15:51.004Z,9.25
2019-04-22T13:18:30.988Z,9.17
2019-04-22T13:20:52.836Z,9.12
2019-04-22T13:23:22.260Z,9.11
2019-04-22T13:25:52.630Z,9.33
2019-04-22T13:28:23.026Z,9.38
2019-04-22T13:30:52.904Z,9.33
2019-04-22T13:33:23.212Z,9.21
2019-04-22T13:35:54.262Z,9.32
2019-04-22T13:38:24.998Z,9.35
2019-04-22T13:41:07.295Z,9.28
2019-04-22T13:43:26.739Z,9.24
2019-04-22T13:45:56.511Z,9.07
2019-04-22T13:48:51.045Z,9.05
2019-04-22T13:54:36.466Z,8.74
2019-04-22T13:56:19.131Z,8.82
2019-04-22T13:58:44.800Z,8.87
2019-04-22T14:01:06.957Z,9.03
2019-04-22T14:03:54.584Z,9.08
2019-04-22T14:06:25.058Z,9.09
2019-04-22T14:08:55.696Z,9.06
2019-04-22T14:11:35.091Z,9.03
2019-04-22T14:13:56.756Z,8.94
2019-04-22T14:16:27.024Z,8.90
2019-04-22T14:18:57.993Z,8.94
2019-04-22T14:21:27.736Z,8.74
2019-04-22T14:23:58.415Z,8.85
2019-04-22T14:26:41.302Z,8.73
2019-04-22T14:28:59.945Z,8.65
2019-04-22T14:31:30.754Z,8.59
2019-04-22T14:34:04.984Z,8.62
2019-04-22T14:36:31.194Z,8.72
2019-04-22T14:39:01.922Z,8.81
2019-04-22T14:41:43.562Z,9.02
2019-04-22T14:45:04.929Z,8.90
2019-04-22T14:47:03.479Z,8.93
2019-04-22T14:49:28.282Z,8.87
2019-04-22T14:51:58.770Z,8.76
2019-04-22T14:54:25.570Z,8.63
2019-04-22T14:56:38.278Z,8.74
2019-04-22T14:59:09.195Z,8.74
2019-04-22T15:01:41.407Z,8.81
2019-04-22T15:04:10.907Z,8.63
2019-04-22T15:06:43.106Z,8.62
2019-04-22T15:09:12.236Z,8.71
2019-04-22T15:11:50.767Z,8.72
2019-04-22T15:14:12.734Z,8.68
2019-04-22T15:17:07.145Z,8.64
2019-04-22T15:19:54.283Z,8.45
2019-04-22T15:22:23.611Z,8.51
2019-04-22T15:24:54.201Z,8.50
2019-04-22T15:27:26.132Z,8.64
2019-04-22T15:29:54.878Z,8.44
2019-04-22T15:32:25.272Z,8.40
2019-04-22T15:34:55.385Z,8.21
2019-04-22T15:37:24.721Z,8.30
2019-04-22T15:39:56.684Z,8.45
2019-04-22T15:42:28.720Z,8.39
2019-04-22T15:44:56.102Z,8.26
2019-04-22T15:47:26.903Z,8.35
2019-04-22T15:49:58.243Z,8.48
2019-04-22T15:52:32.075Z,8.28
2019-04-22T15:54:58.725Z,8.35
2019-04-22T15:57:28.899Z,8.33
2019-04-22T16:00:14.432Z,8.46
2019-04-22T16:02:29.799Z,8.44
2019-04-22T16:04:59.176Z,8.45
2019-04-22T16:07:29.765Z,8.46
2019-04-22T16:09:59.607Z,8.44
2019-04-22T16:12:37.728Z,8.42
2019-04-22T16:15:03.068Z,8.43
2019-04-22T16:17:32.686Z,8.44
2019-04-22T16:20:03.551Z,8.33
2019-04-22T16:22:51.967Z,8.26
2019-04-22T16:25:38.833Z,8.19
2019-04-22T16:28:08.927Z,8.18
2019-04-22T16:30:39.477Z,8.15
2019-04-22T16:33:09.915Z,8.19
2019-04-22T16:35:40.541Z,8.11
2019-04-22T16:38:10.871Z,8.15
2019-04-22T16:40:40.897Z,8.09
2019-04-22T16:43:11.953Z,8.03
2019-04-22T16:45:41.296Z,8.03
2019-04-22T16:48:11.582Z,7.98
2019-04-22T16:50:42.838Z,7.99
2019-04-22T16:53:13.828Z,7.89
2019-04-22T16:55:44.574Z,7.87
2019-04-22T16:58:14.777Z,7.84
2019-04-22T17:00:45.054Z,7.74
2019-04-22T17:03:32.359Z,7.62
2019-04-22T17:06:17.415Z,7.63
2019-04-22T17:08:46.899Z,7.69
2019-04-22T17:11:16.291Z,7.56
2019-04-22T17:13:46.532Z,7.64
2019-04-22T17:16:18.053Z,7.64
2019-04-22T17:18:47.523Z,7.65
2019-04-22T17:21:17.583Z,7.65
2019-04-22T17:23:47.611Z,7.60
2019-04-22T17:26:16.924Z,7.59
2019-04-22T17:28:46.236Z,7.52
2019-04-22T17:31:16.456Z,7.54
2019-04-22T17:33:46.725Z,7.40
2019-04-22T17:36:16.495Z,7.46
2019-04-22T17:38:55.008Z,7.38
2019-04-22T17:41:28.821Z,7.35
2019-04-22T17:44:12.249Z,7.30
2019-04-22T17:46:57.701Z,7.23
2019-04-22T17:49:43.067Z,7.24
2019-04-22T17:54:50.186Z,7.17
2019-04-22T17:57:21.731Z,7.15
2019-04-22T17:59:50.610Z,7.17
2019-04-22T18:02:22.352Z,7.13
2019-04-22T18:04:45.471Z,7.09
2019-04-22T18:07:41.167Z,7.05
2019-04-22T18:10:24.266Z,7.04
2019-04-22T18:12:40.057Z,7.00
2019-04-22T18:15:04.321Z,6.97
2019-04-22T18:17:35.520Z,6.98
2019-04-22T18:19:58.327Z,6.93
2019-04-22T18:22:27.396Z,6.92
2019-04-22T18:24:58.363Z,6.91
2019-04-22T18:30:03.927Z,6.86
2019-04-22T18:32:38.088Z,6.87
2019-04-22T18:35:10.433Z,6.85
2019-04-22T18:37:43.759Z,6.83
2019-04-22T18:40:15.022Z,6.84
2019-04-22T18:42:42.011Z,6.80
2019-04-22T18:45:29.749Z,6.84
2019-04-22T18:47:43.638Z,6.79
2019-04-22T18:50:24.621Z,6.88
2019-04-22T18:53:23.466Z,6.86
2019-04-22T18:55:57.095Z,6.91
2019-04-22T18:58:27.514Z,6.94
2019-04-22T19:00:43.951Z,7.01
2019-04-22T19:03:19.651Z,7.02
2019-04-22T19:06:21.614Z,7.08
2019-04-22T19:08:36.589Z,7.12
2019-04-22T19:11:20.875Z,7.14
2019-04-22T19:21:13.420Z,6.96
2019-04-22T19:23:44.849Z,6.81
2019-04-22T19:26:23.221Z,6.80
2019-04-22T19:28:48.343Z,6.74
2019-04-22T19:31:19.162Z,6.60
2019-04-22T19:33:56.342Z,6.46
2019-04-22T19:36:21.009Z,6.37
2019-04-22T19:38:49.780Z,6.22
2019-04-22T19:41:26.432Z,6.11
2019-04-22T19:43:58.117Z,5.99
2019-04-22T19:46:22.137Z,5.96
2019-04-22T19:48:57.994Z,5.85
2019-04-22T19:53:56.029Z,5.73
2019-04-22T19:56:25.375Z,5.64
2019-04-22T19:58:57.459Z,5.59
2019-04-22T20:01:41.674Z,5.56
2019-04-22T20:06:55.165Z,5.90
2019-04-22T20:09:39.730Z,5.93
2019-04-22T20:12:02.540Z,6.20
2019-04-22T20:14:37.377Z,6.25
2019-04-22T20:16:58.523Z,6.29
2019-04-22T20:19:41.559Z,6.41
2019-04-22T20:22:03.041Z,6.57
2019-04-22T20:24:21.709Z,6.70
2019-04-22T20:27:10.597Z,6.85
2019-04-22T20:29:43.374Z,6.85
2019-04-22T20:32:10.976Z,6.91
2019-04-22T20:34:44.356Z,6.88
2019-04-22T20:37:20.706Z,6.93
2019-04-22T20:39:48.813Z,6.97
2019-04-22T20:44:47.291Z,7.07
2019-04-22T20:47:16.491Z,7.10
2019-04-22T20:49:48.860Z,7.04
2019-04-22T20:52:33.130Z,7.02
2019-04-22T20:54:49.065Z,7.05
2019-04-22T20:57:17.343Z,7.02
2019-04-22T20:59:48.412Z,7.02
2019-04-22T21:02:16.401Z,7.14
2019-04-22T21:04:44.134Z,7.12
2019-04-22T21:07:19.545Z,7.13
2019-04-22T21:09:56.616Z,6.93
2019-04-22T21:12:21.183Z,6.78
2019-04-22T21:15:05.560Z,6.66
2019-04-22T21:17:30.965Z,6.48
2019-04-22T21:20:09.494Z,6.29
2019-04-22T21:22:33.845Z,6.08
2019-04-22T21:25:00.615Z,5.91
2019-04-22T21:27:35.731Z,5.74
2019-04-22T21:29:58.674Z,5.63
2019-04-22T21:32:34.197Z,5.58
2019-04-22T21:35:12.051Z,5.96
2019-04-22T21:37:43.114Z,6.03
2019-04-22T21:40:08.307Z,6.02
2019-04-22T21:42:47.215Z,6.07
2019-04-22T21:45:07.352Z,6.31
2019-04-22T21:47:51.796Z,6.40
2019-04-22T21:52:54.553Z,6.70
2019-04-22T21:55:16.467Z,6.80
2019-04-22T21:58:05.134Z,6.83
2019-04-22T22:03:10.903Z,6.72
2019-04-22T22:05:28.823Z,6.60
2019-04-22T22:07:57.226Z,6.65
2019-04-22T22:10:41.586Z,6.61
2019-04-22T22:13:13.835Z,6.40
2019-04-22T22:15:46.564Z,6.34
2019-04-22T22:18:08.741Z,6.41
2019-04-22T22:20:51.149Z,6.55
2019-04-22T22:23:22.348Z,6.60
2019-04-22T22:25:44.125Z,6.56
2019-04-22T22:28:33.181Z,6.49
2019-04-22T22:33:17.583Z,6.23
2019-04-22T22:35:45.659Z,6.41
2019-04-22T22:38:19.596Z,6.38
2019-04-22T22:40:35.922Z,6.29
2019-04-22T22:43:11.785Z,6.30
2019-04-22T22:45:41.308Z,6.22
2019-04-22T22:48:26.677Z,6.10
2019-04-22T22:50:52.195Z,6.14
2019-04-22T22:53:37.185Z,6.08
2019-04-22T22:56:00.452Z,6.14
2019-04-22T22:58:32.781Z,6.09
2019-04-22T23:00:58.403Z,6.06
2019-04-22T23:03:45.638Z,6.09
2019-04-22T23:06:03.187Z,6.02
2019-04-22T23:08:51.794Z,6.01
2019-04-22T23:11:05.393Z,6.00
2019-04-22T23:13:35.969Z,5.93
2019-04-22T23:16:01.016Z,5.86
2019-04-22T23:18:17.166Z,5.85
2019-04-22T23:20:49.609Z,5.68
2019-04-22T23:23:41.003Z,5.49
2019-04-22T23:26:06.117Z,5.31
2019-04-22T23:28:57.649Z,5.20
2019-04-22T23:31:43.409Z,5.09
2019-04-22T23:34:21.817Z,5.03
2019-04-22T23:37:16.684Z,4.98
2019-04-22T23:42:23.592Z,4.78
2019-04-22T23:45:00.364Z,4.65
2019-04-22T23:47:29.859Z,4.54
2019-04-22T23:50:08.840Z,4.40
2019-04-22T23:53:00.682Z,4.32
2019-04-22T23:55:33.837Z,4.28
2019-04-22T23:58:03.486Z,4.30
